sensor_id;sensor_type;location;lat;lon;timestamp;temperature;humidity
60353;DHT22;46196;52.970;6.954;2024-03-06T00:02:07;5.20;99.90
60353;DHT22;46196;52.970;6.954;2024-03-06T00:04:34;5.10;99.90
60353;DHT22;46196;52.970;6.954;2024-03-06T00:07:00;5.10;99.90
60353;DHT22;46196;52.970;6.954;2024-03-06T00:09:26;5.10;99.90
60353;DHT22;46196;52.970;6.954;2024-03-06T00:11:55;5.10;99.90
60353;DHT22;46196;52.970;6.954;2024-03-06T00:14:23;5.10;99.90
60353;DHT22;46196;52.970;6.954;2024-03-06T00:16:50;4.90;99.90
60353;DHT22;46196;52.970;6.954;2024-03-06T00:19:16;5.00;99.90
60353;DHT22;46196;52.970;6.954;2024-03-06T00:21:42;4.80;99.90
60353;DHT22;46196;52.970;6.954;2024-03-06T00:24:08;5.00;99.90
60353;DHT22;46196;52.970;6.954;2024-03-06T00:26:34;5.00;99.90
60353;DHT22;46196;52.970;6.954;2024-03-06T00:28:59;5.60;99.90
60353;DHT22;46196;52.970;6.954;2024-03-06T00:31:25;5.00;99.90
60353;DHT22;46196;52.970;6.954;2024-03-06T00:33:51;5.00;99.90
60353;DHT22;46196;52.970;6.954;2024-03-06T00:36:17;5.00;99.90
60353;DHT22;46196;52.970;6.954;2024-03-06T00:38:43;5.30;99.90
60353;DHT22;46196;52.970;6.954;2024-03-06T00:41:09;5.20;99.90
60353;DHT22;46196;52.970;6.954;2024-03-06T00:43:35;5.00;99.90
60353;DHT22;46196;52.970;6.954;2024-03-06T00:46:01;6.60;99.90
60353;DHT22;46196;52.970;6.954;2024-03-06T00:48:34;5.00;99.90
60353;DHT22;46196;52.970;6.954;2024-03-06T00:50:59;5.00;99.90
60353;DHT22;46196;52.970;6.954;2024-03-06T00:53:28;5.00;99.90
60353;DHT22;46196;52.970;6.954;2024-03-06T00:55:54;5.00;99.90
60353;DHT22;46196;52.970;6.954;2024-03-06T00:58:19;5.10;99.90
60353;DHT22;46196;52.970;6.954;2024-03-06T01:00:45;5.10;99.90
60353;DHT22;46196;52.970;6.954;2024-03-06T01:03:11;5.10;99.90
60353;DHT22;46196;52.970;6.954;2024-03-06T01:05:37;5.00;99.90
60353;DHT22;46196;52.970;6.954;2024-03-06T01:08:03;5.10;99.90
60353;DHT22;46196;52.970;6.954;2024-03-06T01:10:29;5.00;99.90
60353;DHT22;46196;52.970;6.954;2024-03-06T01:12:54;5.00;99.90
60353;DHT22;46196;52.970;6.954;2024-03-06T01:15:20;5.10;99.90
60353;DHT22;46196;52.970;6.954;2024-03-06T01:17:45;5.10;99.90
60353;DHT22;46196;52.970;6.954;2024-03-06T01:20:12;5.10;99.90
60353;DHT22;46196;52.970;6.954;2024-03-06T01:22:37;5.10;99.90
60353;DHT22;46196;52.970;6.954;2024-03-06T01:25:03;5.10;99.90
60353;DHT22;46196;52.970;6.954;2024-03-06T01:27:30;5.00;99.90
60353;DHT22;46196;52.970;6.954;2024-03-06T01:29:55;5.10;99.90
60353;DHT22;46196;52.970;6.954;2024-03-06T01:32:21;5.10;99.90
60353;DHT22;46196;52.970;6.954;2024-03-06T01:34:47;5.10;99.90
60353;DHT22;46196;52.970;6.954;2024-03-06T01:37:12;5.00;99.90
60353;DHT22;46196;52.970;6.954;2024-03-06T01:39:38;5.00;99.90
60353;DHT22;46196;52.970;6.954;2024-03-06T01:42:04;5.00;99.90
60353;DHT22;46196;52.970;6.954;2024-03-06T01:44:29;5.10;99.90
60353;DHT22;46196;52.970;6.954;2024-03-06T01:46:55;5.10;99.90
60353;DHT22;46196;52.970;6.954;2024-03-06T01:49:21;5.00;99.90
60353;DHT22;46196;52.970;6.954;2024-03-06T01:51:51;5.00;99.90
60353;DHT22;46196;52.970;6.954;2024-03-06T01:54:17;5.00;99.90
60353;DHT22;46196;52.970;6.954;2024-03-06T01:56:45;5.00;99.90
60353;DHT22;46196;52.970;6.954;2024-03-06T01:59:12;5.00;99.90
60353;DHT22;46196;52.970;6.954;2024-03-06T02:01:39;5.00;99.90
60353;DHT22;46196;52.970;6.954;2024-03-06T02:04:06;5.00;99.90
60353;DHT22;46196;52.970;6.954;2024-03-06T02:06:35;5.00;99.90
60353;DHT22;46196;52.970;6.954;2024-03-06T02:09:01;5.00;99.90
60353;DHT22;46196;52.970;6.954;2024-03-06T02:11:26;5.00;99.90
60353;DHT22;46196;52.970;6.954;2024-03-06T02:13:53;5.00;99.90
60353;DHT22;46196;52.970;6.954;2024-03-06T02:16:19;5.00;99.90
60353;DHT22;46196;52.970;6.954;2024-03-06T02:18:52;5.00;99.90
60353;DHT22;46196;52.970;6.954;2024-03-06T02:21:20;5.00;99.90
60353;DHT22;46196;52.970;6.954;2024-03-06T02:23:46;5.00;99.90
60353;DHT22;46196;52.970;6.954;2024-03-06T02:26:12;5.00;99.90
60353;DHT22;46196;52.970;6.954;2024-03-06T02:28:37;5.00;99.90
60353;DHT22;46196;52.970;6.954;2024-03-06T02:31:03;5.00;99.90
60353;DHT22;46196;52.970;6.954;2024-03-06T02:33:32;5.00;99.90
60353;DHT22;46196;52.970;6.954;2024-03-06T02:35:59;5.00;99.90
60353;DHT22;46196;52.970;6.954;2024-03-06T02:38:25;5.00;99.90
60353;DHT22;46196;52.970;6.954;2024-03-06T02:40:51;5.00;99.90
60353;DHT22;46196;52.970;6.954;2024-03-06T02:43:16;5.00;99.90
60353;DHT22;46196;52.970;6.954;2024-03-06T02:45:42;5.00;99.90
60353;DHT22;46196;52.970;6.954;2024-03-06T02:48:08;5.00;99.90
60353;DHT22;46196;52.970;6.954;2024-03-06T02:50:33;5.00;99.90
60353;DHT22;46196;52.970;6.954;2024-03-06T02:52:59;5.00;99.90
60353;DHT22;46196;52.970;6.954;2024-03-06T02:55:25;5.00;99.90
60353;DHT22;46196;52.970;6.954;2024-03-06T02:57:50;5.00;99.90
60353;DHT22;46196;52.970;6.954;2024-03-06T03:00:16;5.00;99.90
60353;DHT22;46196;52.970;6.954;2024-03-06T03:02:42;5.00;99.90
60353;DHT22;46196;52.970;6.954;2024-03-06T03:05:09;5.00;99.90
60353;DHT22;46196;52.970;6.954;2024-03-06T03:07:34;5.00;99.90
60353;DHT22;46196;52.970;6.954;2024-03-06T03:10:00;4.90;99.90
60353;DHT22;46196;52.970;6.954;2024-03-06T03:12:26;5.00;99.90
60353;DHT22;46196;52.970;6.954;2024-03-06T03:14:51;4.90;99.90
60353;DHT22;46196;52.970;6.954;2024-03-06T03:17:20;4.90;99.90
60353;DHT22;46196;52.970;6.954;2024-03-06T03:19:46;4.90;99.90
60353;DHT22;46196;52.970;6.954;2024-03-06T03:22:12;4.90;99.90
60353;DHT22;46196;52.970;6.954;2024-03-06T03:24:39;4.90;99.90
60353;DHT22;46196;52.970;6.954;2024-03-06T03:27:06;4.90;99.90
60353;DHT22;46196;52.970;6.954;2024-03-06T03:29:33;4.90;99.90
60353;DHT22;46196;52.970;6.954;2024-03-06T03:31:58;4.90;99.90
60353;DHT22;46196;52.970;6.954;2024-03-06T03:34:24;4.90;99.90
60353;DHT22;46196;52.970;6.954;2024-03-06T03:36:50;4.90;99.90
60353;DHT22;46196;52.970;6.954;2024-03-06T03:39:15;4.90;99.90
60353;DHT22;46196;52.970;6.954;2024-03-06T03:41:45;4.90;99.90
60353;DHT22;46196;52.970;6.954;2024-03-06T03:44:14;4.90;99.90
60353;DHT22;46196;52.970;6.954;2024-03-06T03:46:41;4.90;99.90
60353;DHT22;46196;52.970;6.954;2024-03-06T03:49:07;4.90;99.90
60353;DHT22;46196;52.970;6.954;2024-03-06T03:51:34;4.80;99.90
60353;DHT22;46196;52.970;6.954;2024-03-06T03:54:00;4.80;99.90
60353;DHT22;46196;52.970;6.954;2024-03-06T03:56:26;4.80;99.90
60353;DHT22;46196;52.970;6.954;2024-03-06T03:58:51;4.90;99.90
60353;DHT22;46196;52.970;6.954;2024-03-06T04:01:17;4.80;99.90
60353;DHT22;46196;52.970;6.954;2024-03-06T04:03:42;4.80;99.90
60353;DHT22;46196;52.970;6.954;2024-03-06T04:06:10;4.90;99.90
60353;DHT22;46196;52.970;6.954;2024-03-06T04:08:36;4.80;99.90
60353;DHT22;46196;52.970;6.954;2024-03-06T04:11:04;4.90;99.90
60353;DHT22;46196;52.970;6.954;2024-03-06T04:13:29;4.80;99.90
60353;DHT22;46196;52.970;6.954;2024-03-06T04:15:55;5.10;99.90
60353;DHT22;46196;52.970;6.954;2024-03-06T04:18:21;4.80;99.90
60353;DHT22;46196;52.970;6.954;2024-03-06T04:20:47;4.80;99.90
60353;DHT22;46196;52.970;6.954;2024-03-06T04:23:12;4.80;99.90
60353;DHT22;46196;52.970;6.954;2024-03-06T04:25:38;4.90;99.90
60353;DHT22;46196;52.970;6.954;2024-03-06T04:28:05;4.90;99.90
60353;DHT22;46196;52.970;6.954;2024-03-06T04:30:33;4.80;99.90
60353;DHT22;46196;52.970;6.954;2024-03-06T04:32:59;4.80;99.90
60353;DHT22;46196;52.970;6.954;2024-03-06T04:35:25;4.80;99.90
60353;DHT22;46196;52.970;6.954;2024-03-06T04:37:50;4.80;99.90
60353;DHT22;46196;52.970;6.954;2024-03-06T04:40:16;4.80;99.90
60353;DHT22;46196;52.970;6.954;2024-03-06T04:42:46;4.80;99.90
60353;DHT22;46196;52.970;6.954;2024-03-06T04:45:15;4.80;99.90
60353;DHT22;46196;52.970;6.954;2024-03-06T04:47:41;4.80;99.90
60353;DHT22;46196;52.970;6.954;2024-03-06T04:50:11;4.80;99.90
60353;DHT22;46196;52.970;6.954;2024-03-06T04:52:40;4.80;99.90
60353;DHT22;46196;52.970;6.954;2024-03-06T04:55:07;4.80;99.90
60353;DHT22;46196;52.970;6.954;2024-03-06T04:57:34;4.80;99.90
60353;DHT22;46196;52.970;6.954;2024-03-06T04:59:59;4.80;99.90
60353;DHT22;46196;52.970;6.954;2024-03-06T05:02:27;4.80;99.90
60353;DHT22;46196;52.970;6.954;2024-03-06T05:04:53;4.80;99.90
60353;DHT22;46196;52.970;6.954;2024-03-06T05:07:18;4.80;99.90
60353;DHT22;46196;52.970;6.954;2024-03-06T05:09:44;4.80;99.90
60353;DHT22;46196;52.970;6.954;2024-03-06T05:12:10;4.80;99.90
60353;DHT22;46196;52.970;6.954;2024-03-06T05:14:36;4.80;99.90
60353;DHT22;46196;52.970;6.954;2024-03-06T05:17:02;4.80;99.90
60353;DHT22;46196;52.970;6.954;2024-03-06T05:19:28;4.80;99.90
60353;DHT22;46196;52.970;6.954;2024-03-06T05:22:00;4.80;99.90
60353;DHT22;46196;52.970;6.954;2024-03-06T05:24:26;4.80;99.90
60353;DHT22;46196;52.970;6.954;2024-03-06T05:26:52;4.80;99.90
60353;DHT22;46196;52.970;6.954;2024-03-06T05:29:17;4.80;99.90
60353;DHT22;46196;52.970;6.954;2024-03-06T05:31:43;4.80;99.90
60353;DHT22;46196;52.970;6.954;2024-03-06T05:34:09;4.80;99.90
60353;DHT22;46196;52.970;6.954;2024-03-06T05:36:34;4.80;99.90
60353;DHT22;46196;52.970;6.954;2024-03-06T05:39:00;4.80;99.90
60353;DHT22;46196;52.970;6.954;2024-03-06T05:41:25;4.80;99.90
60353;DHT22;46196;52.970;6.954;2024-03-06T05:43:51;4.80;99.90
60353;DHT22;46196;52.970;6.954;2024-03-06T05:46:17;4.80;99.90
60353;DHT22;46196;52.970;6.954;2024-03-06T05:48:43;4.80;99.90
60353;DHT22;46196;52.970;6.954;2024-03-06T05:51:09;4.80;99.90
60353;DHT22;46196;52.970;6.954;2024-03-06T05:53:38;4.80;99.90
60353;DHT22;46196;52.970;6.954;2024-03-06T05:56:07;4.80;99.90
60353;DHT22;46196;52.970;6.954;2024-03-06T05:58:32;4.80;99.90
60353;DHT22;46196;52.970;6.954;2024-03-06T06:01:00;4.90;99.90
60353;DHT22;46196;52.970;6.954;2024-03-06T06:03:26;4.80;99.90
60353;DHT22;46196;52.970;6.954;2024-03-06T06:05:54;4.80;99.90
60353;DHT22;46196;52.970;6.954;2024-03-06T06:08:19;4.90;99.90
60353;DHT22;46196;52.970;6.954;2024-03-06T06:10:45;4.80;99.90
60353;DHT22;46196;52.970;6.954;2024-03-06T06:13:11;4.90;99.90
60353;DHT22;46196;52.970;6.954;2024-03-06T06:15:37;4.80;99.90
60353;DHT22;46196;52.970;6.954;2024-03-06T06:18:03;4.90;99.90
60353;DHT22;46196;52.970;6.954;2024-03-06T06:20:28;4.90;99.90
60353;DHT22;46196;52.970;6.954;2024-03-06T06:22:54;4.90;99.90
60353;DHT22;46196;52.970;6.954;2024-03-06T06:25:20;4.80;99.90
60353;DHT22;46196;52.970;6.954;2024-03-06T06:27:46;4.80;99.90
60353;DHT22;46196;52.970;6.954;2024-03-06T06:30:12;4.80;99.90
60353;DHT22;46196;52.970;6.954;2024-03-06T06:32:38;4.90;99.90
60353;DHT22;46196;52.970;6.954;2024-03-06T06:35:07;4.80;99.90
60353;DHT22;46196;52.970;6.954;2024-03-06T06:37:32;4.90;99.90
60353;DHT22;46196;52.970;6.954;2024-03-06T06:39:59;4.90;99.90
60353;DHT22;46196;52.970;6.954;2024-03-06T06:42:25;4.90;99.90
60353;DHT22;46196;52.970;6.954;2024-03-06T06:44:51;4.90;99.90
60353;DHT22;46196;52.970;6.954;2024-03-06T06:47:17;4.90;99.90
60353;DHT22;46196;52.970;6.954;2024-03-06T06:49:43;4.90;99.90
60353;DHT22;46196;52.970;6.954;2024-03-06T06:52:10;4.90;99.90
60353;DHT22;46196;52.970;6.954;2024-03-06T06:54:35;4.90;99.90
60353;DHT22;46196;52.970;6.954;2024-03-06T06:57:01;4.90;99.90
60353;DHT22;46196;52.970;6.954;2024-03-06T06:59:28;4.90;99.90
60353;DHT22;46196;52.970;6.954;2024-03-06T07:01:54;4.90;99.90
60353;DHT22;46196;52.970;6.954;2024-03-06T07:04:20;4.90;99.90
60353;DHT22;46196;52.970;6.954;2024-03-06T07:06:46;5.00;99.90
60353;DHT22;46196;52.970;6.954;2024-03-06T07:09:12;5.00;99.90
60353;DHT22;46196;52.970;6.954;2024-03-06T07:11:38;5.00;99.90
60353;DHT22;46196;52.970;6.954;2024-03-06T07:14:03;5.00;99.90
60353;DHT22;46196;52.970;6.954;2024-03-06T07:16:29;5.00;99.90
60353;DHT22;46196;52.970;6.954;2024-03-06T07:18:54;5.00;99.90
60353;DHT22;46196;52.970;6.954;2024-03-06T07:21:20;5.00;99.90
60353;DHT22;46196;52.970;6.954;2024-03-06T07:23:46;5.10;99.90
60353;DHT22;46196;52.970;6.954;2024-03-06T07:26:12;5.50;99.90
60353;DHT22;46196;52.970;6.954;2024-03-06T07:28:38;5.00;99.90
60353;DHT22;46196;52.970;6.954;2024-03-06T07:31:03;5.10;99.90
60353;DHT22;46196;52.970;6.954;2024-03-06T07:33:31;5.10;99.90
60353;DHT22;46196;52.970;6.954;2024-03-06T07:35:56;5.10;99.90
60353;DHT22;46196;52.970;6.954;2024-03-06T07:38:22;5.10;99.90
60353;DHT22;46196;52.970;6.954;2024-03-06T07:40:49;5.10;99.90
60353;DHT22;46196;52.970;6.954;2024-03-06T07:43:14;5.20;99.90
60353;DHT22;46196;52.970;6.954;2024-03-06T07:45:44;5.20;99.90
60353;DHT22;46196;52.970;6.954;2024-03-06T07:48:09;5.20;99.90
60353;DHT22;46196;52.970;6.954;2024-03-06T07:50:35;5.30;99.90
60353;DHT22;46196;52.970;6.954;2024-03-06T07:53:01;5.20;99.90
60353;DHT22;46196;52.970;6.954;2024-03-06T07:55:27;5.20;99.90
60353;DHT22;46196;52.970;6.954;2024-03-06T07:57:53;5.20;99.90
60353;DHT22;46196;52.970;6.954;2024-03-06T08:00:19;5.20;99.90
60353;DHT22;46196;52.970;6.954;2024-03-06T08:02:45;5.20;99.90
60353;DHT22;46196;52.970;6.954;2024-03-06T08:05:17;5.20;99.90
60353;DHT22;46196;52.970;6.954;2024-03-06T08:07:44;5.20;99.90
60353;DHT22;46196;52.970;6.954;2024-03-06T08:10:14;5.30;99.90
60353;DHT22;46196;52.970;6.954;2024-03-06T08:12:43;5.30;99.90
60353;DHT22;46196;52.970;6.954;2024-03-06T08:15:14;5.30;99.90
60353;DHT22;46196;52.970;6.954;2024-03-06T08:17:41;5.30;99.90
60353;DHT22;46196;52.970;6.954;2024-03-06T08:20:08;5.40;99.90
60353;DHT22;46196;52.970;6.954;2024-03-06T08:22:36;5.40;99.90
60353;DHT22;46196;52.970;6.954;2024-03-06T08:25:06;5.40;99.90
60353;DHT22;46196;52.970;6.954;2024-03-06T08:27:33;5.40;99.90
60353;DHT22;46196;52.970;6.954;2024-03-06T08:29:59;5.40;99.90
60353;DHT22;46196;52.970;6.954;2024-03-06T08:32:25;5.40;99.90
60353;DHT22;46196;52.970;6.954;2024-03-06T08:34:50;5.60;99.90
60353;DHT22;46196;52.970;6.954;2024-03-06T08:37:16;5.50;99.90
60353;DHT22;46196;52.970;6.954;2024-03-06T08:39:41;5.50;99.90
60353;DHT22;46196;52.970;6.954;2024-03-06T08:42:07;5.50;99.90
60353;DHT22;46196;52.970;6.954;2024-03-06T08:44:34;5.70;99.90
60353;DHT22;46196;52.970;6.954;2024-03-06T08:46:59;5.60;99.90
60353;DHT22;46196;52.970;6.954;2024-03-06T08:49:25;5.60;99.90
60353;DHT22;46196;52.970;6.954;2024-03-06T08:51:50;5.70;99.90
60353;DHT22;46196;52.970;6.954;2024-03-06T08:54:16;5.70;99.90
60353;DHT22;46196;52.970;6.954;2024-03-06T08:56:45;5.80;99.90
60353;DHT22;46196;52.970;6.954;2024-03-06T08:59:11;5.80;99.90
60353;DHT22;46196;52.970;6.954;2024-03-06T09:01:36;5.90;99.90
60353;DHT22;46196;52.970;6.954;2024-03-06T09:04:02;6.00;99.90
60353;DHT22;46196;52.970;6.954;2024-03-06T09:06:28;6.10;99.90
60353;DHT22;46196;52.970;6.954;2024-03-06T09:08:53;6.20;99.90
60353;DHT22;46196;52.970;6.954;2024-03-06T09:11:19;6.10;99.90
60353;DHT22;46196;52.970;6.954;2024-03-06T09:13:45;6.20;99.90
60353;DHT22;46196;52.970;6.954;2024-03-06T09:16:11;6.20;99.90
60353;DHT22;46196;52.970;6.954;2024-03-06T09:18:36;6.20;99.90
60353;DHT22;46196;52.970;6.954;2024-03-06T09:21:02;6.30;99.90
60353;DHT22;46196;52.970;6.954;2024-03-06T09:23:28;6.20;99.90
60353;DHT22;46196;52.970;6.954;2024-03-06T09:25:55;6.30;99.90
60353;DHT22;46196;52.970;6.954;2024-03-06T09:28:21;6.40;99.90
60353;DHT22;46196;52.970;6.954;2024-03-06T09:30:48;6.30;99.90
60353;DHT22;46196;52.970;6.954;2024-03-06T09:33:16;6.30;99.90
60353;DHT22;46196;52.970;6.954;2024-03-06T09:35:42;6.30;99.90
60353;DHT22;46196;52.970;6.954;2024-03-06T09:38:11;6.30;99.90
60353;DHT22;46196;52.970;6.954;2024-03-06T09:40:39;6.40;99.90
60353;DHT22;46196;52.970;6.954;2024-03-06T09:43:07;6.40;99.90
60353;DHT22;46196;52.970;6.954;2024-03-06T09:45:32;6.40;99.90
60353;DHT22;46196;52.970;6.954;2024-03-06T09:47:58;6.50;99.90
60353;DHT22;46196;52.970;6.954;2024-03-06T09:50:24;6.50;99.90
60353;DHT22;46196;52.970;6.954;2024-03-06T09:52:52;6.50;99.90
60353;DHT22;46196;52.970;6.954;2024-03-06T09:55:20;6.70;99.90
60353;DHT22;46196;52.970;6.954;2024-03-06T09:57:46;6.70;99.90
60353;DHT22;46196;52.970;6.954;2024-03-06T10:00:13;6.70;99.90
60353;DHT22;46196;52.970;6.954;2024-03-06T10:02:46;6.80;99.90
60353;DHT22;46196;52.970;6.954;2024-03-06T10:05:24;6.90;99.90
60353;DHT22;46196;52.970;6.954;2024-03-06T10:07:50;6.90;99.90
60353;DHT22;46196;52.970;6.954;2024-03-06T10:10:17;7.10;99.90
60353;DHT22;46196;52.970;6.954;2024-03-06T10:12:45;7.10;99.90
60353;DHT22;46196;52.970;6.954;2024-03-06T10:15:10;7.20;99.90
60353;DHT22;46196;52.970;6.954;2024-03-06T10:17:38;7.20;99.90
60353;DHT22;46196;52.970;6.954;2024-03-06T10:20:22;7.30;99.90
60353;DHT22;46196;52.970;6.954;2024-03-06T10:22:50;7.30;99.90
60353;DHT22;46196;52.970;6.954;2024-03-06T10:25:23;7.40;99.90
60353;DHT22;46196;52.970;6.954;2024-03-06T10:28:09;8.00;99.90
60353;DHT22;46196;52.970;6.954;2024-03-06T10:30:39;7.50;99.90
60353;DHT22;46196;52.970;6.954;2024-03-06T10:33:08;7.50;99.90
60353;DHT22;46196;52.970;6.954;2024-03-06T10:35:37;7.60;99.90
60353;DHT22;46196;52.970;6.954;2024-03-06T10:38:04;7.70;99.90
60353;DHT22;46196;52.970;6.954;2024-03-06T10:40:35;7.70;99.90
60353;DHT22;46196;52.970;6.954;2024-03-06T10:43:02;7.80;99.90
60353;DHT22;46196;52.970;6.954;2024-03-06T10:48:13;8.00;99.90
60353;DHT22;46196;52.970;6.954;2024-03-06T10:50:40;8.00;99.90
60353;DHT22;46196;52.970;6.954;2024-03-06T10:53:13;8.00;99.90
60353;DHT22;46196;52.970;6.954;2024-03-06T10:55:39;8.10;99.90
60353;DHT22;46196;52.970;6.954;2024-03-06T10:58:06;8.10;99.90
60353;DHT22;46196;52.970;6.954;2024-03-06T11:00:39;8.40;99.90
60353;DHT22;46196;52.970;6.954;2024-03-06T11:03:08;8.40;99.90
60353;DHT22;46196;52.970;6.954;2024-03-06T11:05:38;8.40;99.90
60353;DHT22;46196;52.970;6.954;2024-03-06T11:08:15;8.50;99.90
60353;DHT22;46196;52.970;6.954;2024-03-06T11:10:43;8.70;99.90
60353;DHT22;46196;52.970;6.954;2024-03-06T11:15:40;8.70;99.90
60353;DHT22;46196;52.970;6.954;2024-03-06T11:26:36;8.80;99.90
60353;DHT22;46196;52.970;6.954;2024-03-06T11:29:01;8.90;99.90
60353;DHT22;46196;52.970;6.954;2024-03-06T11:31:27;8.90;99.90
60353;DHT22;46196;52.970;6.954;2024-03-06T11:33:53;8.90;99.90
60353;DHT22;46196;52.970;6.954;2024-03-06T11:36:26;8.90;99.90
60353;DHT22;46196;52.970;6.954;2024-03-06T11:39:00;9.00;99.90
60353;DHT22;46196;52.970;6.954;2024-03-06T11:44:14;9.10;99.90
60353;DHT22;46196;52.970;6.954;2024-03-06T11:47:09;9.30;99.90
60353;DHT22;46196;52.970;6.954;2024-03-06T11:49:35;9.70;99.90
60353;DHT22;46196;52.970;6.954;2024-03-06T11:52:05;9.90;99.90
60353;DHT22;46196;52.970;6.954;2024-03-06T11:54:32;10.00;99.90
60353;DHT22;46196;52.970;6.954;2024-03-06T11:57:00;10.10;99.90
60353;DHT22;46196;52.970;6.954;2024-03-06T11:59:27;10.10;99.90
60353;DHT22;46196;52.970;6.954;2024-03-06T12:01:55;10.10;99.90
60353;DHT22;46196;52.970;6.954;2024-03-06T12:04:22;10.10;99.90
60353;DHT22;46196;52.970;6.954;2024-03-06T12:06:48;10.10;99.90
60353;DHT22;46196;52.970;6.954;2024-03-06T12:09:15;10.10;99.90
60353;DHT22;46196;52.970;6.954;2024-03-06T12:11:41;10.00;99.90
60353;DHT22;46196;52.970;6.954;2024-03-06T12:14:18;10.10;99.90
60353;DHT22;46196;52.970;6.954;2024-03-06T12:16:54;10.10;99.90
60353;DHT22;46196;52.970;6.954;2024-03-06T12:19:21;10.10;99.90
60353;DHT22;46196;52.970;6.954;2024-03-06T12:21:47;10.10;99.90
60353;DHT22;46196;52.970;6.954;2024-03-06T12:24:16;10.10;99.90
60353;DHT22;46196;52.970;6.954;2024-03-06T12:26:44;10.20;99.90
60353;DHT22;46196;52.970;6.954;2024-03-06T12:29:11;10.20;99.90
60353;DHT22;46196;52.970;6.954;2024-03-06T12:31:38;10.20;99.90
60353;DHT22;46196;52.970;6.954;2024-03-06T12:34:05;10.30;99.90
60353;DHT22;46196;52.970;6.954;2024-03-06T12:36:32;10.30;99.90
60353;DHT22;46196;52.970;6.954;2024-03-06T12:39:02;10.30;99.90
60353;DHT22;46196;52.970;6.954;2024-03-06T12:41:39;10.30;99.90
60353;DHT22;46196;52.970;6.954;2024-03-06T12:44:05;10.30;99.90
60353;DHT22;46196;52.970;6.954;2024-03-06T12:46:32;10.30;99.90
60353;DHT22;46196;52.970;6.954;2024-03-06T12:48:58;10.30;99.90
60353;DHT22;46196;52.970;6.954;2024-03-06T12:51:24;10.30;99.90
60353;DHT22;46196;52.970;6.954;2024-03-06T12:53:50;11.20;99.90
60353;DHT22;46196;52.970;6.954;2024-03-06T12:56:17;11.20;99.90
60353;DHT22;46196;52.970;6.954;2024-03-06T12:58:42;10.30;99.90
60353;DHT22;46196;52.970;6.954;2024-03-06T13:01:08;10.90;99.90
60353;DHT22;46196;52.970;6.954;2024-03-06T13:03:34;10.30;99.90
60353;DHT22;46196;52.970;6.954;2024-03-06T13:06:00;10.30;99.90
60353;DHT22;46196;52.970;6.954;2024-03-06T13:08:26;10.40;99.90
60353;DHT22;46196;52.970;6.954;2024-03-06T13:10:51;10.40;99.90
60353;DHT22;46196;52.970;6.954;2024-03-06T13:13:17;10.40;99.90
60353;DHT22;46196;52.970;6.954;2024-03-06T13:15:43;10.50;99.90
60353;DHT22;46196;52.970;6.954;2024-03-06T13:18:09;10.60;99.90
60353;DHT22;46196;52.970;6.954;2024-03-06T13:20:35;10.50;99.90
60353;DHT22;46196;52.970;6.954;2024-03-06T13:23:01;10.60;99.90
60353;DHT22;46196;52.970;6.954;2024-03-06T13:25:27;10.50;99.90
60353;DHT22;46196;52.970;6.954;2024-03-06T13:27:52;10.40;99.90
60353;DHT22;46196;52.970;6.954;2024-03-06T13:30:19;10.40;99.90
60353;DHT22;46196;52.970;6.954;2024-03-06T13:32:45;10.30;99.90
60353;DHT22;46196;52.970;6.954;2024-03-06T13:35:12;10.30;99.90
60353;DHT22;46196;52.970;6.954;2024-03-06T13:37:42;10.40;99.90
60353;DHT22;46196;52.970;6.954;2024-03-06T13:40:08;10.40;99.90
60353;DHT22;46196;52.970;6.954;2024-03-06T13:42:36;10.40;99.90
60353;DHT22;46196;52.970;6.954;2024-03-06T13:45:03;10.70;99.90
60353;DHT22;46196;52.970;6.954;2024-03-06T13:47:30;10.60;99.90
60353;DHT22;46196;52.970;6.954;2024-03-06T13:49:56;10.70;99.90
60353;DHT22;46196;52.970;6.954;2024-03-06T13:52:22;10.90;99.90
60353;DHT22;46196;52.970;6.954;2024-03-06T13:54:49;11.00;99.90
60353;DHT22;46196;52.970;6.954;2024-03-06T13:57:15;11.00;99.90
60353;DHT22;46196;52.970;6.954;2024-03-06T13:59:41;11.00;99.90
60353;DHT22;46196;52.970;6.954;2024-03-06T14:02:07;11.00;99.90
60353;DHT22;46196;52.970;6.954;2024-03-06T14:04:33;11.10;99.90
60353;DHT22;46196;52.970;6.954;2024-03-06T14:06:59;11.20;99.90
60353;DHT22;46196;52.970;6.954;2024-03-06T14:09:25;11.30;99.90
60353;DHT22;46196;52.970;6.954;2024-03-06T14:11:52;11.40;99.90
60353;DHT22;46196;52.970;6.954;2024-03-06T14:14:18;11.50;99.90
60353;DHT22;46196;52.970;6.954;2024-03-06T14:16:45;11.60;99.90
60353;DHT22;46196;52.970;6.954;2024-03-06T14:19:11;11.60;99.90
60353;DHT22;46196;52.970;6.954;2024-03-06T14:21:37;11.60;99.90
60353;DHT22;46196;52.970;6.954;2024-03-06T14:24:04;12.40;99.90
60353;DHT22;46196;52.970;6.954;2024-03-06T14:26:33;11.50;99.90
60353;DHT22;46196;52.970;6.954;2024-03-06T14:29:00;11.60;99.90
60353;DHT22;46196;52.970;6.954;2024-03-06T14:31:26;12.40;99.90
60353;DHT22;46196;52.970;6.954;2024-03-06T14:33:52;11.80;99.90
60353;DHT22;46196;52.970;6.954;2024-03-06T14:36:18;11.80;99.90
60353;DHT22;46196;52.970;6.954;2024-03-06T14:38:44;11.90;99.90
60353;DHT22;46196;52.970;6.954;2024-03-06T14:41:13;12.70;99.90
60353;DHT22;46196;52.970;6.954;2024-03-06T14:43:38;12.00;99.90
60353;DHT22;46196;52.970;6.954;2024-03-06T14:46:07;12.00;99.90
60353;DHT22;46196;52.970;6.954;2024-03-06T14:48:34;12.00;99.90
60353;DHT22;46196;52.970;6.954;2024-03-06T14:51:00;12.00;99.90
60353;DHT22;46196;52.970;6.954;2024-03-06T14:53:26;12.60;99.90
60353;DHT22;46196;52.970;6.954;2024-03-06T14:55:52;12.70;99.90
60353;DHT22;46196;52.970;6.954;2024-03-06T14:58:21;11.90;99.90
60353;DHT22;46196;52.970;6.954;2024-03-06T15:00:46;11.90;99.90
60353;DHT22;46196;52.970;6.954;2024-03-06T15:03:12;11.80;99.90
60353;DHT22;46196;52.970;6.954;2024-03-06T15:05:38;11.70;99.90
60353;DHT22;46196;52.970;6.954;2024-03-06T15:08:04;12.40;99.90
60353;DHT22;46196;52.970;6.954;2024-03-06T15:10:30;11.70;99.90
60353;DHT22;46196;52.970;6.954;2024-03-06T15:12:59;11.50;99.90
60353;DHT22;46196;52.970;6.954;2024-03-06T15:15:24;11.40;99.90
60353;DHT22;46196;52.970;6.954;2024-03-06T15:17:50;11.50;99.90
60353;DHT22;46196;52.970;6.954;2024-03-06T15:20:16;12.00;99.90
60353;DHT22;46196;52.970;6.954;2024-03-06T15:22:43;11.40;99.90
60353;DHT22;46196;52.970;6.954;2024-03-06T15:25:10;12.20;99.90
60353;DHT22;46196;52.970;6.954;2024-03-06T15:27:37;12.10;99.90
60353;DHT22;46196;52.970;6.954;2024-03-06T15:30:04;11.60;99.90
60353;DHT22;46196;52.970;6.954;2024-03-06T15:32:30;11.60;99.90
60353;DHT22;46196;52.970;6.954;2024-03-06T15:34:56;12.30;99.90
60353;DHT22;46196;52.970;6.954;2024-03-06T15:37:23;11.70;99.90
60353;DHT22;46196;52.970;6.954;2024-03-06T15:39:53;11.70;99.90
60353;DHT22;46196;52.970;6.954;2024-03-06T15:42:19;11.70;99.90
60353;DHT22;46196;52.970;6.954;2024-03-06T15:44:45;11.70;99.90
60353;DHT22;46196;52.970;6.954;2024-03-06T15:47:11;11.60;99.90
60353;DHT22;46196;52.970;6.954;2024-03-06T15:49:36;12.30;99.90
60353;DHT22;46196;52.970;6.954;2024-03-06T15:52:02;11.30;99.90
60353;DHT22;46196;52.970;6.954;2024-03-06T15:54:29;11.30;99.90
60353;DHT22;46196;52.970;6.954;2024-03-06T15:56:54;11.20;99.90